createdAt,value
2022-12-15T00:01:05.060Z,29.10
2022-12-15T00:03:54.098Z,30.70
2022-12-15T00:06:42.988Z,36.00
2022-12-15T00:09:31.308Z,30.90
2022-12-15T00:12:20.108Z,33.10
2022-12-15T00:15:09.189Z,33.00
2022-12-15T00:17:57.233Z,34.20
2022-12-15T00:20:45.767Z,31.70
2022-12-15T00:23:34.432Z,36.60
2022-12-15T00:26:22.861Z,32.70
2022-12-15T00:29:11.009Z,29.10
2022-12-15T00:31:59.442Z,30.30
2022-12-15T00:34:48.110Z,31.90
2022-12-15T00:37:36.802Z,30.60
2022-12-15T00:40:08.663Z,32.00
2022-12-15T00:42:39.601Z,37.40
2022-12-15T00:45:11.479Z,37.50
2022-12-15T00:47:42.554Z,34.40
2022-12-15T00:50:30.901Z,34.90
2022-12-15T00:53:19.558Z,34.10
2022-12-15T00:56:08.120Z,35.00
2022-12-15T00:58:56.464Z,32.80
2022-12-15T01:01:45.027Z,33.90
2022-12-15T01:04:38.373Z,35.80
2022-12-15T01:07:26.414Z,36.00
2022-12-15T01:10:14.858Z,33.90
2022-12-15T01:13:03.930Z,37.90
2022-12-15T01:15:57.047Z,36.60
2022-12-15T01:18:49.426Z,37.10
2022-12-15T01:21:24.316Z,39.80
2022-12-15T01:23:56.138Z,41.60
2022-12-15T01:26:26.947Z,38.90
2022-12-15T01:28:57.664Z,44.90
2022-12-15T01:31:28.369Z,45.60
2022-12-15T01:33:59.345Z,44.70
2022-12-15T01:36:30.129Z,47.40
2022-12-15T01:39:00.750Z,41.40
2022-12-15T01:41:31.893Z,45.20
2022-12-15T01:44:16.099Z,49.00
2022-12-15T01:46:47.757Z,47.90
2022-12-15T01:49:22.025Z,49.00
2022-12-15T01:51:53.710Z,53.30
2022-12-15T01:54:26.506Z,52.40
2022-12-15T01:56:59.450Z,52.80
2022-12-15T01:59:31.815Z,51.60
2022-12-15T02:02:03.317Z,48.10
2022-12-15T02:04:34.999Z,52.50
2022-12-15T02:07:05.904Z,59.50
2022-12-15T02:09:36.845Z,54.90
2022-12-15T02:12:11.007Z,48.80
2022-12-15T02:14:54.381Z,61.30
2022-12-15T02:20:11.519Z,55.70
2022-12-15T02:22:49.060Z,64.30
2022-12-15T02:25:32.849Z,64.50
2022-12-15T02:28:05.905Z,66.40
2022-12-15T02:30:42.736Z,63.60
2022-12-15T02:33:16.412Z,63.50
2022-12-15T02:35:51.616Z,57.60
2022-12-15T02:38:31.407Z,65.20
2022-12-15T02:41:03.003Z,64.20
2022-12-15T02:43:35.649Z,59.70
2022-12-15T02:46:12.467Z,68.70
2022-12-15T02:48:50.245Z,62.30
2022-12-15T02:51:25.981Z,71.00
2022-12-15T02:54:08.732Z,65.10
2022-12-15T02:56:44.019Z,67.60
2022-12-15T02:59:17.519Z,68.60
2022-12-15T03:04:21.607Z,76.00
2022-12-15T03:07:00.832Z,82.40
2022-12-15T03:09:33.347Z,76.40
2022-12-15T03:12:04.085Z,75.80
2022-12-15T03:14:35.050Z,82.30
2022-12-15T03:17:07.809Z,78.90
2022-12-15T03:19:38.874Z,75.00
2022-12-15T03:22:09.842Z,72.10
2022-12-15T03:24:40.753Z,83.40
2022-12-15T03:27:11.293Z,77.80
2022-12-15T03:29:42.276Z,81.30
2022-12-15T03:32:13.042Z,77.70
2022-12-15T03:34:44.270Z,79.50
2022-12-15T03:37:14.805Z,76.20
2022-12-15T03:39:46.216Z,83.20
2022-12-15T03:42:36.831Z,77.80
2022-12-15T03:45:08.635Z,92.60
2022-12-15T03:47:41.475Z,79.40
2022-12-15T03:50:12.945Z,81.20
2022-12-15T03:52:43.562Z,87.50
2022-12-15T03:55:14.493Z,81.30
2022-12-15T03:57:45.082Z,92.20
2022-12-15T04:00:16.838Z,77.40
2022-12-15T04:02:50.387Z,79.80
2022-12-15T04:05:23.157Z,83.40
2022-12-15T04:07:53.789Z,84.80
2022-12-15T04:10:30.181Z,88.70
2022-12-15T04:13:04.673Z,92.00
2022-12-15T04:15:36.246Z,85.40
2022-12-15T04:18:07.722Z,87.00
2022-12-15T04:20:39.228Z,92.70
2022-12-15T04:23:09.872Z,85.50
2022-12-15T04:25:58.436Z,87.10
2022-12-15T04:28:46.659Z,88.90
2022-12-15T04:31:36.992Z,87.00
2022-12-15T04:34:26.288Z,83.40
2022-12-15T04:37:14.665Z,85.70
2022-12-15T04:40:04.849Z,95.20
2022-12-15T04:42:56.579Z,101.70
2022-12-15T04:45:44.890Z,98.60
2022-12-15T04:48:32.973Z,94.40
2022-12-15T04:51:23.736Z,87.90
2022-12-15T04:54:12.687Z,97.70
2022-12-15T04:57:01.385Z,90.20
2022-12-15T04:59:49.731Z,92.60
2022-12-15T05:02:38.420Z,91.80
2022-12-15T05:05:27.196Z,102.30
2022-12-15T05:08:17.884Z,90.30
2022-12-15T05:11:06.383Z,97.20
2022-12-15T05:13:55.791Z,91.50
2022-12-15T05:16:44.163Z,92.70
2022-12-15T05:19:32.349Z,104.90
2022-12-15T05:22:21.301Z,92.00
2022-12-15T05:25:09.608Z,105.60
2022-12-15T05:27:57.961Z,98.70
2022-12-15T05:30:46.204Z,100.90
2022-12-15T05:33:17.313Z,100.70
2022-12-15T05:35:48.214Z,98.60
2022-12-15T05:38:19.575Z,99.50
2022-12-15T05:40:50.655Z,93.00
2022-12-15T05:43:26.190Z,97.80
2022-12-15T05:45:57.432Z,100.60
2022-12-15T05:48:29.748Z,102.70
2022-12-15T05:51:03.834Z,102.10
2022-12-15T05:53:35.027Z,104.10
2022-12-15T05:56:06.376Z,106.70
2022-12-15T05:58:41.526Z,105.60
2022-12-15T06:01:17.255Z,103.60
2022-12-15T06:03:48.101Z,105.60
2022-12-15T06:06:19.243Z,99.60
2022-12-15T06:08:50.384Z,109.20
2022-12-15T06:11:22.755Z,102.80
2022-12-15T06:13:53.842Z,99.50
2022-12-15T06:16:25.441Z,99.00
2022-12-15T06:18:57.507Z,103.40
2022-12-15T06:21:29.519Z,100.20
2022-12-15T06:24:00.866Z,106.00
2022-12-15T06:26:32.999Z,108.80
2022-12-15T06:29:04.547Z,111.40
2022-12-15T06:31:36.009Z,114.90
2022-12-15T06:34:07.666Z,106.10
2022-12-15T06:36:39.599Z,106.20
2022-12-15T06:39:12.763Z,116.10
2022-12-15T06:41:43.745Z,105.10
2022-12-15T06:44:15.939Z,101.80
2022-12-15T06:46:46.990Z,113.40
2022-12-15T06:49:17.696Z,106.60
2022-12-15T06:51:49.882Z,114.70
2022-12-15T06:54:21.710Z,107.10
2022-12-15T06:56:53.563Z,110.00
2022-12-15T06:59:24.913Z,118.20
2022-12-15T07:01:56.028Z,108.40
2022-12-15T07:04:27.295Z,108.60
2022-12-15T07:06:58.173Z,105.40
2022-12-15T07:09:29.072Z,112.80
2022-12-15T07:11:59.874Z,109.90
2022-12-15T07:14:30.835Z,110.50
2022-12-15T07:17:01.578Z,105.50
2022-12-15T07:19:32.362Z,104.80
2022-12-15T07:22:03.010Z,103.10
2022-12-15T07:24:33.813Z,101.30
2022-12-15T07:27:04.844Z,102.90
2022-12-15T07:29:37.334Z,105.30
2022-12-15T07:32:08.241Z,104.50
2022-12-15T07:34:39.263Z,103.60
2022-12-15T07:37:10.206Z,95.10
2022-12-15T07:39:41.141Z,97.20
2022-12-15T07:42:11.877Z,105.50
2022-12-15T07:44:42.848Z,103.40
2022-12-15T07:47:13.394Z,98.80
2022-12-15T07:49:44.842Z,107.90
2022-12-15T07:52:15.442Z,97.70
2022-12-15T07:54:46.543Z,95.70
2022-12-15T07:57:17.984Z,101.20
2022-12-15T07:59:49.163Z,102.60
2022-12-15T08:02:20.324Z,106.10
2022-12-15T08:04:53.486Z,99.60
2022-12-15T08:07:24.270Z,97.10
2022-12-15T08:09:55.481Z,100.80
2022-12-15T08:12:26.147Z,94.10
2022-12-15T08:14:58.095Z,95.60
2022-12-15T08:17:28.799Z,98.50
2022-12-15T08:20:01.417Z,102.90
2022-12-15T08:22:34.289Z,98.20
2022-12-15T08:25:05.495Z,92.30
2022-12-15T08:27:36.232Z,100.00
2022-12-15T08:30:08.076Z,86.10
2022-12-15T08:32:39.711Z,90.10
2022-12-15T08:35:31.724Z,90.20
2022-12-15T08:38:05.836Z,87.60
2022-12-15T08:40:36.926Z,92.10
2022-12-15T08:43:07.711Z,88.10
2022-12-15T08:45:41.842Z,86.20
2022-12-15T08:48:12.459Z,82.00
2022-12-15T08:50:45.761Z,90.50
2022-12-15T08:53:32.308Z,83.40
2022-12-15T08:56:07.049Z,78.50
2022-12-15T08:58:38.276Z,81.90
2022-12-15T09:01:10.555Z,72.00
2022-12-15T09:03:41.778Z,78.20
2022-12-15T09:06:14.429Z,74.50
2022-12-15T09:08:45.303Z,67.40
2022-12-15T09:11:21.116Z,69.70
2022-12-15T09:13:51.868Z,72.00
2022-12-15T09:16:22.995Z,64.20
2022-12-15T09:18:54.702Z,66.50
2022-12-15T09:21:26.870Z,63.20
2022-12-15T09:24:00.937Z,57.70
2022-12-15T09:26:32.642Z,56.20
2022-12-15T09:29:03.715Z,59.80
2022-12-15T09:31:35.014Z,53.00
2022-12-15T09:34:05.950Z,60.90
2022-12-15T09:36:37.251Z,54.80
2022-12-15T09:39:09.174Z,61.70
2022-12-15T09:41:40.565Z,57.40
2022-12-15T09:44:14.171Z,51.70
2022-12-15T09:46:52.307Z,57.50
2022-12-15T09:49:39.863Z,60.50
2022-12-15T09:52:13.236Z,63.20
2022-12-15T09:54:44.762Z,63.80
2022-12-15T09:57:20.406Z,57.70
2022-12-15T10:00:03.800Z,59.40
2022-12-15T10:03:01.850Z,72.20
2022-12-15T10:06:07.225Z,64.60
2022-12-15T10:08:33.809Z,64.30
2022-12-15T10:11:06.189Z,64.70
2022-12-15T10:13:41.150Z,56.40
2022-12-15T10:16:18.735Z,61.00
2022-12-15T10:18:59.229Z,66.00
2022-12-15T10:21:32.715Z,61.90
2022-12-15T10:24:12.145Z,59.70
2022-12-15T10:26:43.905Z,60.90
2022-12-15T10:29:21.613Z,51.80
2022-12-15T10:31:54.963Z,63.80
2022-12-15T10:34:27.519Z,59.80
2022-12-15T10:36:59.402Z,55.70
2022-12-15T10:39:39.548Z,65.10
2022-12-15T10:42:14.651Z,56.30
2022-12-15T10:44:50.552Z,57.40
2022-12-15T10:47:23.221Z,64.40
2022-12-15T10:49:54.629Z,62.40
2022-12-15T10:52:28.273Z,58.30
2022-12-15T10:54:59.100Z,55.90
2022-12-15T10:57:31.894Z,56.50
2022-12-15T11:00:22.868Z,59.20
2022-12-15T11:02:53.714Z,59.60
2022-12-15T11:05:25.913Z,59.70
2022-12-15T11:07:57.264Z,55.90
2022-12-15T11:10:49.929Z,60.10
2022-12-15T11:13:21.540Z,54.70
2022-12-15T11:15:55.000Z,60.00
2022-12-15T11:18:34.146Z,58.40
2022-12-15T11:21:07.355Z,65.00
2022-12-15T11:23:48.755Z,64.20
2022-12-15T11:26:24.334Z,57.50
2022-12-15T11:28:57.843Z,53.30
2022-12-15T11:31:34.563Z,57.70
2022-12-15T11:34:05.354Z,59.40
2022-12-15T11:36:46.017Z,53.50
2022-12-15T11:39:23.978Z,68.70
2022-12-15T11:41:59.126Z,54.60
2022-12-15T11:44:37.713Z,58.00
2022-12-15T11:47:13.364Z,54.40
2022-12-15T11:49:51.435Z,63.00
2022-12-15T11:52:32.801Z,55.60
2022-12-15T11:55:08.703Z,64.80
2022-12-15T11:57:50.483Z,61.90
2022-12-15T12:00:21.994Z,64.70
2022-12-15T12:02:58.967Z,55.30
2022-12-15T12:05:44.137Z,67.10
2022-12-15T12:08:32.778Z,61.80
2022-12-15T12:11:07.748Z,72.80
2022-12-15T12:13:40.273Z,73.70
2022-12-15T12:16:16.130Z,67.30
2022-12-15T12:18:50.424Z,68.90
2022-12-15T12:21:24.342Z,59.10
2022-12-15T12:23:57.223Z,66.60
2022-12-15T12:26:34.124Z,66.30
2022-12-15T12:29:07.831Z,71.20
2022-12-15T12:31:42.636Z,60.80
2022-12-15T12:34:15.369Z,73.40
2022-12-15T12:36:48.946Z,68.80
2022-12-15T12:39:21.633Z,73.60
2022-12-15T12:41:55.720Z,68.60
2022-12-15T12:44:31.072Z,65.60
2022-12-15T12:47:08.772Z,63.10
2022-12-15T12:49:40.515Z,76.60
2022-12-15T12:52:18.280Z,65.70
2022-12-15T12:54:57.128Z,75.00
2022-12-15T12:57:36.395Z,69.00
2022-12-15T13:00:14.881Z,63.70
2022-12-15T13:03:12.507Z,70.60
2022-12-15T13:05:44.298Z,63.30
2022-12-15T13:08:29.158Z,64.80
2022-12-15T13:11:20.300Z,61.80
2022-12-15T13:13:53.192Z,79.20
2022-12-15T13:16:26.372Z,70.10
2022-12-15T13:18:58.726Z,72.50
2022-12-15T13:21:50.154Z,68.00
2022-12-15T13:24:27.624Z,69.80
2022-12-15T13:27:06.339Z,64.20
2022-12-15T13:29:38.086Z,81.90
2022-12-15T13:32:26.197Z,81.80
2022-12-15T13:34:57.815Z,72.90
2022-12-15T13:37:41.823Z,71.70
2022-12-15T13:40:26.043Z,75.00
2022-12-15T13:42:59.736Z,75.10
2022-12-15T13:45:38.310Z,72.40
2022-12-15T13:48:14.619Z,79.30
2022-12-15T13:50:51.233Z,75.30
2022-12-15T13:53:25.357Z,72.60
2022-12-15T13:58:27.031Z,74.90
2022-12-15T14:00:59.037Z,67.10
2022-12-15T14:03:30.810Z,71.50
2022-12-15T14:06:02.023Z,66.80
2022-12-15T14:08:32.964Z,75.70
2022-12-15T14:11:22.417Z,79.60
2022-12-15T14:14:00.516Z,80.90
2022-12-15T14:16:35.972Z,90.80
2022-12-15T14:19:14.147Z,83.30
2022-12-15T14:21:51.607Z,80.60
2022-12-15T14:24:42.256Z,80.60
2022-12-15T14:27:22.660Z,77.60
2022-12-15T14:30:09.593Z,88.10
2022-12-15T14:32:41.156Z,90.70
2022-12-15T14:35:15.170Z,84.60
2022-12-15T14:37:46.208Z,79.90
2022-12-15T14:40:22.389Z,80.10
2022-12-15T14:42:56.428Z,76.00
2022-12-15T14:45:28.682Z,77.20
2022-12-15T14:48:30.983Z,87.50
2022-12-15T14:50:52.139Z,92.80
2022-12-15T14:53:23.632Z,86.80
2022-12-15T14:55:54.950Z,84.40
2022-12-15T14:58:32.649Z,84.90
2022-12-15T15:01:07.381Z,88.60
2022-12-15T15:03:39.743Z,75.60
2022-12-15T15:06:19.329Z,81.20
2022-12-15T15:08:51.024Z,95.40
2022-12-15T15:11:29.590Z,91.90
2022-12-15T15:14:01.967Z,85.20
2022-12-15T15:16:33.178Z,84.60
2022-12-15T15:19:04.968Z,86.30
2022-12-15T15:21:37.861Z,84.40
2022-12-15T15:24:22.341Z,95.00
2022-12-15T15:26:53.193Z,80.70
2022-12-15T15:29:38.034Z,83.90
2022-12-15T15:32:16.065Z,82.60
2022-12-15T15:34:48.016Z,74.20
2022-12-15T15:37:20.085Z,76.40
2022-12-15T15:39:51.378Z,75.90
2022-12-15T15:42:25.463Z,89.70
2022-12-15T15:45:00.519Z,89.60
2022-12-15T15:47:31.576Z,85.60
2022-12-15T15:50:02.689Z,72.60
2022-12-15T15:52:34.567Z,67.20
2022-12-15T15:55:05.720Z,80.50
2022-12-15T15:57:36.587Z,73.20
2022-12-15T16:00:17.121Z,77.00
2022-12-15T16:02:48.023Z,80.70
2022-12-15T16:05:19.290Z,84.20
2022-12-15T16:07:50.792Z,82.00
2022-12-15T16:10:22.193Z,91.30
2022-12-15T16:12:55.025Z,92.60
2022-12-15T16:15:27.781Z,78.80
2022-12-15T16:18:02.460Z,75.60
2022-12-15T16:20:34.229Z,74.90
2022-12-15T16:23:06.568Z,71.60
2022-12-15T16:25:48.412Z,75.50
2022-12-15T16:28:22.715Z,75.90
2022-12-15T16:30:54.234Z,68.60
2022-12-15T16:33:25.558Z,75.60
2022-12-15T16:35:56.517Z,66.00
2022-12-15T16:38:29.048Z,66.60
2022-12-15T16:41:00.742Z,80.40
2022-12-15T16:43:36.645Z,77.20
2022-12-15T16:46:12.785Z,83.00
2022-12-15T16:48:43.924Z,72.80
2022-12-15T16:51:27.940Z,80.30
2022-12-15T16:53:59.148Z,77.60
2022-12-15T16:56:29.785Z,69.80
2022-12-15T17:09:23.502Z,71.30
2022-12-15T17:11:54.709Z,66.10
2022-12-15T17:14:25.419Z,67.20
2022-12-15T17:16:56.187Z,76.30
2022-12-15T17:19:26.983Z,73.90
2022-12-15T17:21:58.338Z,74.20
2022-12-15T17:24:29.456Z,60.90
2022-12-15T17:27:00.776Z,71.60
2022-12-15T17:29:32.072Z,73.60
2022-12-15T17:32:02.757Z,69.10
2022-12-15T17:34:34.886Z,67.50
2022-12-15T17:37:07.767Z,73.20
2022-12-15T17:39:38.444Z,74.60
2022-12-15T17:42:13.349Z,75.60
2022-12-15T17:44:46.807Z,69.30
2022-12-15T17:47:17.853Z,80.10
2022-12-15T17:49:48.631Z,77.00
2022-12-15T17:52:23.442Z,82.60
2022-12-15T17:54:54.720Z,80.80
2022-12-15T17:57:25.711Z,76.30
2022-12-15T17:59:56.446Z,78.00
2022-12-15T18:02:27.368Z,79.00
2022-12-15T18:04:59.128Z,82.20
2022-12-15T18:07:29.584Z,87.90
2022-12-15T18:10:00.581Z,82.50
2022-12-15T18:12:31.220Z,73.00
2022-12-15T18:15:02.052Z,75.00
2022-12-15T18:17:32.793Z,82.50
2022-12-15T18:20:04.893Z,82.90
2022-12-15T18:22:35.538Z,82.00
2022-12-15T18:25:08.653Z,86.50
2022-12-15T18:27:39.774Z,86.30
2022-12-15T18:30:15.866Z,85.20
2022-12-15T18:32:47.504Z,81.00
2022-12-15T18:35:20.189Z,76.90
2022-12-15T18:37:54.740Z,77.20
2022-12-15T18:40:28.345Z,80.70
2022-12-15T18:45:28.546Z,74.70
2022-12-15T18:47:59.717Z,82.30
2022-12-15T18:50:30.690Z,86.60
2022-12-15T18:53:02.965Z,80.20
2022-12-15T18:55:34.471Z,84.90
2022-12-15T18:58:05.477Z,88.00
2022-12-15T19:00:37.210Z,87.90
2022-12-15T19:03:08.079Z,90.20
2022-12-15T19:05:40.121Z,83.80
2022-12-15T19:08:14.342Z,84.50
2022-12-15T19:10:48.920Z,89.10
2022-12-15T19:13:20.936Z,83.10
2022-12-15T19:15:52.488Z,83.10
2022-12-15T19:18:41.771Z,81.50
2022-12-15T19:21:33.331Z,85.20
2022-12-15T19:24:04.306Z,83.60
2022-12-15T19:26:35.229Z,74.20
2022-12-15T19:29:11.787Z,75.00
2022-12-15T19:31:42.321Z,76.50
2022-12-15T19:34:13.080Z,80.50
2022-12-15T19:36:43.752Z,75.50
2022-12-15T19:39:20.218Z,74.20
2022-12-15T19:41:51.162Z,77.20
2022-12-15T19:44:22.088Z,73.70
2022-12-15T19:46:52.523Z,73.60
2022-12-15T19:49:23.560Z,65.60
2022-12-15T19:51:54.594Z,62.80
2022-12-15T19:54:25.652Z,71.20
2022-12-15T19:56:56.479Z,69.10
2022-12-15T19:59:28.498Z,63.60
2022-12-15T20:01:59.328Z,60.90
2022-12-15T20:04:32.565Z,58.60
2022-12-15T20:07:04.273Z,66.70
2022-12-15T20:09:36.184Z,63.10
2022-12-15T20:12:07.240Z,67.00
2022-12-15T20:14:38.103Z,57.80
2022-12-15T20:17:08.540Z,66.40
2022-12-15T20:19:39.581Z,58.60
2022-12-15T20:22:13.060Z,57.60
2022-12-15T20:24:44.793Z,63.10
2022-12-15T20:27:16.744Z,60.60
2022-12-15T20:29:48.031Z,60.00
2022-12-15T20:32:19.760Z,62.60
2022-12-15T20:34:50.625Z,59.80
2022-12-15T20:37:22.539Z,62.30
2022-12-15T20:39:57.489Z,70.50
2022-12-15T20:42:29.829Z,74.00
2022-12-15T20:45:00.955Z,63.90
2022-12-15T20:47:31.507Z,63.40
2022-12-15T20:50:04.676Z,68.50
2022-12-15T20:55:07.601Z,60.30
2022-12-15T20:57:38.440Z,58.00
2022-12-15T21:00:13.409Z,60.40
2022-12-15T21:02:44.483Z,61.70
2022-12-15T21:05:20.025Z,61.60
2022-12-15T21:07:52.531Z,63.80
2022-12-15T21:10:23.665Z,60.70
2022-12-15T21:12:55.970Z,61.80
2022-12-15T21:15:26.930Z,65.50
2022-12-15T21:18:20.009Z,63.60
2022-12-15T21:20:49.788Z,52.90
2022-12-15T21:23:24.149Z,59.40
2022-12-15T21:25:57.454Z,59.30
2022-12-15T21:28:28.444Z,61.80
2022-12-15T21:30:59.587Z,57.10
2022-12-15T21:33:30.481Z,60.70
2022-12-15T21:36:01.821Z,64.20
2022-12-15T21:38:34.710Z,59.30
2022-12-15T21:41:07.384Z,60.80
2022-12-15T21:43:38.020Z,64.90
2022-12-15T21:46:15.095Z,58.80
2022-12-15T21:49:03.613Z,62.30
2022-12-15T21:51:35.713Z,63.20
2022-12-15T21:54:07.368Z,61.20
2022-12-15T21:56:38.165Z,53.10
2022-12-15T21:59:12.740Z,51.90
2022-12-15T22:01:43.897Z,59.00
2022-12-15T22:04:19.353Z,60.00
2022-12-15T22:06:50.950Z,58.50
2022-12-15T22:09:21.886Z,63.70
2022-12-15T22:11:54.821Z,53.70
2022-12-15T22:14:27.065Z,54.50
2022-12-15T22:16:58.038Z,55.00
2022-12-15T22:19:29.037Z,56.90
2022-12-15T22:21:59.946Z,52.40
2022-12-15T22:24:30.502Z,53.70
2022-12-15T22:27:01.380Z,56.80
2022-12-15T22:29:32.038Z,59.80
2022-12-15T22:32:03.211Z,66.10
2022-12-15T22:34:33.844Z,57.90
2022-12-15T22:37:04.735Z,69.30
2022-12-15T22:39:35.442Z,66.40
2022-12-15T22:42:07.042Z,61.80
2022-12-15T22:44:38.422Z,64.30
2022-12-15T22:47:11.810Z,76.60
2022-12-15T22:52:16.581Z,64.90
2022-12-15T22:54:47.936Z,65.90
2022-12-15T22:57:21.661Z,58.80
2022-12-15T22:59:53.550Z,71.20
2022-12-15T23:02:25.364Z,69.90
2022-12-15T23:04:56.974Z,72.20
2022-12-15T23:07:27.938Z,65.60
2022-12-15T23:10:14.472Z,73.90
2022-12-15T23:12:57.866Z,71.10
2022-12-15T23:16:15.154Z,72.70
2022-12-15T23:19:00.803Z,75.90
2022-12-15T23:21:32.979Z,76.70
2022-12-15T23:24:03.650Z,70.00
2022-12-15T23:26:34.519Z,69.20
2022-12-15T23:29:05.323Z,71.40
2022-12-15T23:31:36.674Z,78.30
2022-12-15T23:34:07.331Z,73.30
2022-12-15T23:36:38.459Z,60.70
2022-12-15T23:39:09.084Z,61.60
2022-12-15T23:41:40.115Z,65.40
2022-12-15T23:44:12.588Z,68.50
2022-12-15T23:46:43.284Z,67.20
2022-12-15T23:49:14.197Z,66.40
2022-12-15T23:51:44.839Z,66.30
2022-12-15T23:54:15.903Z,64.30
2022-12-15T23:56:46.915Z,63.30
2022-12-15T23:59:17.661Z,75.30
